createdAt,value
2022-10-30T00:04:44.494Z,20.33
2022-10-30T00:09:42.579Z,22.83
2022-10-30T00:14:40.534Z,18.50
2022-10-30T00:19:38.507Z,22.40
2022-10-30T00:24:37.800Z,21.27
2022-10-30T00:29:35.754Z,18.90
2022-10-30T00:34:33.632Z,19.83
2022-10-30T00:39:31.556Z,23.63
2022-10-30T00:44:42.033Z,25.80
2022-10-30T00:49:50.417Z,21.37
2022-10-30T00:54:53.306Z,20.57
2022-10-30T00:59:53.507Z,19.20
2022-10-30T01:04:53.479Z,19.37
2022-10-30T01:09:51.851Z,28.13
2022-10-30T01:14:55.526Z,22.50
2022-10-30T01:20:03.907Z,23.93
2022-10-30T01:25:15.735Z,20.30
2022-10-30T01:30:40.917Z,26.90
2022-10-30T01:35:45.203Z,24.00
2022-10-30T01:40:45.129Z,23.57
2022-10-30T01:46:11.059Z,29.90
2022-10-30T01:51:20.204Z,25.93
2022-10-30T01:56:27.494Z,28.17
2022-10-30T02:01:36.813Z,26.00
2022-10-30T02:06:41.040Z,23.10
2022-10-30T02:11:40.965Z,30.60
2022-10-30T02:16:48.328Z,29.10
2022-10-30T02:21:54.052Z,20.00
2022-10-30T02:26:51.961Z,24.33
2022-10-30T02:31:50.278Z,24.87
2022-10-30T02:36:52.055Z,23.73
2022-10-30T02:41:51.652Z,26.70
2022-10-30T02:46:49.645Z,26.93
2022-10-30T02:51:47.548Z,18.93
2022-10-30T02:56:46.789Z,16.13
2022-10-30T03:01:45.951Z,22.17
2022-10-30T03:06:43.928Z,32.17
2022-10-30T03:11:41.990Z,20.40
2022-10-30T03:16:44.765Z,23.80
2022-10-30T03:21:42.698Z,16.97
2022-10-30T03:26:43.881Z,29.47
2022-10-30T03:31:43.195Z,25.33
2022-10-30T03:36:50.565Z,19.30
2022-10-30T03:41:48.581Z,24.93
2022-10-30T03:46:47.920Z,18.33
2022-10-30T03:51:57.358Z,30.10
2022-10-30T03:56:57.333Z,23.07
2022-10-30T04:02:00.539Z,21.37
2022-10-30T04:07:00.863Z,22.40
2022-10-30T04:11:58.762Z,23.10
2022-10-30T04:16:56.746Z,22.90
2022-10-30T04:21:56.030Z,25.20
2022-10-30T04:26:53.951Z,16.80
2022-10-30T04:31:52.039Z,22.07
2022-10-30T04:36:50.796Z,22.20
2022-10-30T04:41:50.138Z,20.57
2022-10-30T04:46:55.029Z,25.80
2022-10-30T04:51:54.921Z,16.43
2022-10-30T04:56:54.941Z,19.83
2022-10-30T05:01:53.529Z,16.60
2022-10-30T05:06:54.621Z,19.10
2022-10-30T05:11:58.899Z,17.37
2022-10-30T05:16:58.512Z,19.00
2022-10-30T05:21:58.854Z,15.70
2022-10-30T05:26:58.155Z,21.43
2022-10-30T05:31:57.203Z,17.70
2022-10-30T05:37:16.814Z,25.47
2022-10-30T05:42:18.010Z,17.53
2022-10-30T05:47:19.209Z,20.17
2022-10-30T05:52:22.244Z,16.33
2022-10-30T05:57:23.519Z,19.87
2022-10-30T06:02:21.893Z,16.83
2022-10-30T06:07:19.835Z,15.77
2022-10-30T06:12:17.816Z,12.10
2022-10-30T06:17:37.292Z,19.83
2022-10-30T06:22:56.739Z,13.80
2022-10-30T06:28:02.824Z,15.00
2022-10-30T06:33:05.423Z,14.17
2022-10-30T06:38:05.570Z,11.47
2022-10-30T06:43:06.364Z,15.27
2022-10-30T06:48:10.406Z,16.17
2022-10-30T06:53:15.157Z,16.60
2022-10-30T06:58:13.511Z,15.77
2022-10-30T07:03:20.840Z,24.77
2022-10-30T07:08:18.825Z,13.63
2022-10-30T07:13:17.290Z,17.73
2022-10-30T07:18:22.249Z,16.63
2022-10-30T07:23:20.871Z,14.80
2022-10-30T07:28:22.348Z,18.10
2022-10-30T07:33:41.896Z,16.23
2022-10-30T07:38:58.172Z,14.00
2022-10-30T07:44:03.843Z,20.87
2022-10-30T07:49:28.734Z,14.60
2022-10-30T07:54:38.265Z,15.90
2022-10-30T08:00:06.743Z,14.00
2022-10-30T08:05:27.192Z,15.87
2022-10-30T08:10:50.742Z,14.73
2022-10-30T08:15:49.500Z,15.30
2022-10-30T08:20:51.417Z,14.00
2022-10-30T08:25:50.186Z,17.03
2022-10-30T08:30:48.826Z,16.17
2022-10-30T08:35:56.463Z,14.00
2022-10-30T08:40:54.451Z,24.10
2022-10-30T08:45:53.398Z,16.40
2022-10-30T08:50:58.641Z,15.63
2022-10-30T08:56:01.813Z,21.07
2022-10-30T09:01:12.151Z,15.90
2022-10-30T09:06:30.822Z,15.73
2022-10-30T09:11:49.870Z,16.20
2022-10-30T09:16:48.277Z,13.00
2022-10-30T09:21:50.223Z,16.67
2022-10-30T09:26:48.385Z,16.60
2022-10-30T09:31:56.760Z,16.33
2022-10-30T09:36:58.261Z,20.67
2022-10-30T09:42:17.866Z,15.77
2022-10-30T09:47:30.667Z,13.43
2022-10-30T09:52:35.938Z,15.07
2022-10-30T09:57:43.094Z,13.80
2022-10-30T10:02:57.218Z,12.70
2022-10-30T10:08:06.186Z,14.23
2022-10-30T10:13:33.832Z,13.90
2022-10-30T10:18:36.768Z,9.77
2022-10-30T10:23:46.882Z,14.23
2022-10-30T10:28:59.724Z,14.83
2022-10-30T10:34:10.179Z,16.10
2022-10-30T10:39:22.480Z,18.50
2022-10-30T10:44:36.419Z,11.30
2022-10-30T10:49:47.301Z,12.47
2022-10-30T10:54:50.178Z,14.03
2022-10-30T10:59:52.548Z,16.90
2022-10-30T11:04:56.195Z,17.73
2022-10-30T11:09:57.358Z,12.60
2022-10-30T11:14:55.384Z,15.43
2022-10-30T11:20:02.282Z,16.73
2022-10-30T11:25:20.623Z,14.30
2022-10-30T11:30:23.368Z,12.00
2022-10-30T11:35:22.614Z,14.37
2022-10-30T11:40:23.791Z,15.67
2022-10-30T11:45:31.947Z,17.30
2022-10-30T11:50:32.743Z,13.30
2022-10-30T11:55:39.381Z,12.63
2022-10-30T12:00:39.086Z,17.07
2022-10-30T12:05:39.267Z,16.13
2022-10-30T12:10:45.029Z,16.67
2022-10-30T12:15:44.031Z,17.67
2022-10-30T12:20:46.734Z,17.10
2022-10-30T12:25:50.357Z,18.87
2022-10-30T12:30:55.474Z,14.93
2022-10-30T12:35:59.190Z,19.33
2022-10-30T12:41:07.043Z,14.10
2022-10-30T12:46:22.858Z,13.10
2022-10-30T12:51:30.696Z,13.17
2022-10-30T12:56:34.846Z,16.90
2022-10-30T13:01:37.730Z,15.23
2022-10-30T13:06:42.369Z,10.30
2022-10-30T13:11:49.835Z,12.63
2022-10-30T13:16:47.845Z,14.10
2022-10-30T13:21:54.003Z,13.90
2022-10-30T13:26:59.476Z,16.03
2022-10-30T13:32:17.114Z,14.57
2022-10-30T13:37:20.860Z,15.87
2022-10-30T13:42:37.912Z,21.30
2022-10-30T13:47:46.862Z,18.33
2022-10-30T13:52:53.516Z,13.50
2022-10-30T13:58:01.337Z,9.73
2022-10-30T14:03:23.574Z,20.00
2022-10-30T14:13:51.559Z,13.93
2022-10-30T14:19:01.664Z,27.57
2022-10-30T14:24:12.078Z,14.07
2022-10-30T14:29:38.220Z,19.03
2022-10-30T14:34:44.061Z,15.70
2022-10-30T14:39:42.937Z,11.43
2022-10-30T14:45:02.552Z,15.53
2022-10-30T14:50:08.168Z,15.07
2022-10-30T14:55:29.206Z,13.83
2022-10-30T15:00:46.607Z,11.13
2022-10-30T15:05:53.216Z,17.73
2022-10-30T15:11:18.225Z,14.63
2022-10-30T15:16:20.560Z,22.23
2022-10-30T15:21:26.564Z,13.53
2022-10-30T15:26:27.401Z,17.43
2022-10-30T15:31:30.756Z,15.97
2022-10-30T15:36:30.686Z,21.37
2022-10-30T15:41:30.086Z,10.63
2022-10-30T15:46:29.401Z,12.40
2022-10-30T15:51:30.680Z,18.63
2022-10-30T15:56:33.662Z,17.40
2022-10-30T16:01:34.949Z,20.33
2022-10-30T16:06:33.407Z,14.73
2022-10-30T16:11:31.533Z,15.47
2022-10-30T16:16:33.606Z,13.73
2022-10-30T16:21:32.669Z,12.30
2022-10-30T16:26:35.580Z,20.00
2022-10-30T16:31:40.758Z,14.10
2022-10-30T16:36:40.281Z,19.93
2022-10-30T16:41:38.267Z,14.40
2022-10-30T16:46:42.116Z,15.93
2022-10-30T16:51:40.706Z,19.90
2022-10-30T16:56:38.720Z,21.27
2022-10-30T17:01:37.197Z,22.07
2022-10-30T17:06:41.843Z,16.80
2022-10-30T17:11:43.192Z,16.77
2022-10-30T17:16:41.501Z,13.53
2022-10-30T17:21:42.294Z,12.90
2022-10-30T17:26:40.285Z,17.80
2022-10-30T17:31:44.930Z,17.20
2022-10-30T17:36:45.063Z,15.90
2022-10-30T17:41:44.224Z,16.40
2022-10-30T17:46:42.259Z,18.53
2022-10-30T17:51:40.226Z,14.33
2022-10-30T17:56:42.850Z,17.70
2022-10-30T18:01:40.971Z,23.03
2022-10-30T18:06:38.950Z,22.00
2022-10-30T18:11:37.754Z,19.87
2022-10-30T18:16:37.091Z,19.23
2022-10-30T18:21:35.047Z,19.57
2022-10-30T18:26:39.342Z,17.87
2022-10-30T18:31:40.728Z,17.07
2022-10-30T18:36:38.740Z,25.60
2022-10-30T18:41:38.892Z,18.30
2022-10-30T18:46:36.871Z,21.00
2022-10-30T18:51:36.363Z,19.80
2022-10-30T18:56:34.360Z,17.80
2022-10-30T19:01:32.997Z,18.07
2022-10-30T19:06:32.819Z,19.30
2022-10-30T19:11:32.500Z,27.73
2022-10-30T19:16:30.550Z,21.73
2022-10-30T19:21:31.916Z,29.30
2022-10-30T19:26:35.446Z,23.10
2022-10-30T19:31:33.421Z,28.90
2022-10-30T19:36:33.723Z,25.77
2022-10-30T19:41:33.364Z,34.27
2022-10-30T19:46:31.271Z,25.80
2022-10-30T19:51:29.815Z,26.67
2022-10-30T19:56:27.902Z,22.07
2022-10-30T20:01:27.376Z,25.33
2022-10-30T20:06:25.548Z,28.33
2022-10-30T20:11:23.494Z,29.93
2022-10-30T20:16:21.588Z,25.77
2022-10-30T20:21:20.988Z,29.97
2022-10-30T20:26:24.968Z,26.30
2022-10-30T20:31:23.266Z,31.27
2022-10-30T20:36:22.659Z,30.47
2022-10-30T20:41:23.088Z,28.30
2022-10-30T20:46:21.733Z,22.80
2022-10-30T20:51:21.934Z,26.40
2022-10-30T20:56:21.178Z,39.17
2022-10-30T21:01:19.205Z,26.27
2022-10-30T21:06:17.353Z,38.13
2022-10-30T21:11:15.620Z,28.53
2022-10-30T21:16:15.354Z,32.23
2022-10-30T21:21:13.662Z,27.30
2022-10-30T21:26:12.068Z,27.93
2022-10-30T21:31:13.193Z,28.80
2022-10-30T21:36:14.629Z,29.57
2022-10-30T21:41:14.074Z,30.80
2022-10-30T21:46:13.454Z,29.13
2022-10-30T21:51:15.050Z,37.93
2022-10-30T21:56:14.801Z,31.23
2022-10-30T22:01:18.379Z,27.87
2022-10-30T22:06:21.961Z,36.77
2022-10-30T22:11:22.089Z,29.43
2022-10-30T22:16:20.093Z,28.33
2022-10-30T22:21:19.791Z,27.40
2022-10-30T22:26:22.075Z,28.30
2022-10-30T22:31:21.593Z,27.67
2022-10-30T22:36:22.662Z,25.73
2022-10-30T22:41:23.875Z,24.90
2022-10-30T22:46:22.934Z,24.87
2022-10-30T22:51:23.360Z,29.00
2022-10-30T22:56:24.520Z,29.03
2022-10-30T23:01:24.330Z,31.60
2022-10-30T23:06:24.290Z,27.90
2022-10-30T23:11:22.262Z,34.63
2022-10-30T23:16:22.629Z,32.50
2022-10-30T23:21:24.710Z,33.90
2022-10-30T23:26:25.088Z,27.90
2022-10-30T23:31:30.124Z,25.47
2022-10-30T23:36:29.676Z,30.07
2022-10-30T23:41:29.543Z,27.40
2022-10-30T23:46:28.178Z,29.37
2022-10-30T23:51:26.449Z,26.80
2022-10-30T23:56:25.844Z,28.27
